x

St Georges - 8nm Nw Of Crescent City, Ca (46027) Wave Buoy

8:50pm - Sun 24th Sep 2017 All times are PDT. -7 hours from GMT.

  • Sig Wave height 6.2ft
  • Swell Direction
  • Peak Period 7s
  • Average Period 5s
  • Wind
    20mph, 25mph gusts
  • Sea Temp 55°f
  • Air Temp 56°f
  • Sea Pressure 1015.9mb
  • St Georges - 8nm Nw Of Crescent City, Ca
  • St Georges - 8nm Nw Of Crescent City, Ca

More Historic Weather Station data

Upgrade to MSW Pro to gain access to the past 30 days of data for over 8000 Wavebouys and Weather Stations around the globe.

Join

Comparision Forecast

View Surf forecast
   
Sun 09/24 8:50pm 6ft 7s 5s 20 25 mph 1015.9mb 55f 56f
7:50pm 6.5ft 6s 5s 25 29 mph 1015mb 56f 58f
6:50pm 5.5ft 6s 5s 29 34 mph 1015mb 56f 57f
5:50pm 6ft 7s 5s 27 34 mph 1015.1mb 56f 57f
4:50pm 5ft 5s 5s 27 31 mph 1015.2mb 56f 57f
3:50pm 5ft 7s 5s 25 27 mph 1015.6mb 56f 57f
2:50pm 4.5ft 8s 5s 20 25 mph 1016mb 56f 57f
1:50pm 4.5ft 6s 6s 13 16 mph 1016.6mb 56f 57f
12:50pm 4.5ft 8s 6s 4 9 mph 1017mb 56f 56f
11:50am 5ft 8s 6s 9 11 mph 1017.3mb 56f 55f
10:50am 4.5ft 8s 6s 9 11 mph 1017.5mb 56f 55f
9:50am 4.5ft 8s 6s 4 7 mph 1017.5mb 56f 55f
8:50am 4.5ft 8s 6s 7 7 mph 1017.3mb 56f 56f
7:50am 4.5ft 8s 6s 4 7 mph 1016.9mb 56f 55f
6:50am 4.5ft 8s 6s 2 4 mph 1016.6mb 56f 55f
5:50am 4.5ft 6s 6s 2 4 mph 1016.4mb 56f 55f
4:50am 5ft 8s 6s 9 9 mph 1016.3mb 56f 55f
3:50am 4.5ft 8s 5s 11 13 mph 1016mb 56f 55f
2:50am 4.5ft 8s 6s 13 18 mph 1015.8mb 56f 56f
1:50am 4.5ft 8s 5s 13 18 mph 1015.8mb 56f 56f
12:50am 5ft 8s 5s 18 20 mph 1015.4mb 56f 56f
Sat 09/23 11:50pm 5ft 6s 5s 18 22 mph 1015.3mb 56f 56f
10:50pm 6ft 6s 5s 22 27 mph 1015.3mb 56f 56f
9:50pm 6ft 8s 5s 22 27 mph 1015.1mb 56f 56f
8:50pm 6ft 8s 5s 25 31 mph 1014.7mb 56f 56f
7:50pm 6ft 5s 5s 29 36 mph 1014.5mb 56f 57f
6:50pm 6ft 8s 5s 27 34 mph 1014.7mb 56f 57f
5:50pm 5ft 8s 5s 25 29 mph 1014.7mb 56f 58f
4:50pm 5ft 9s 5s 22 29 mph 1015mb 56f 57f
3:50pm 5ft 8s 5s 20 25 mph 1015.2mb 56f 58f
2:50pm 5ft 8s 5s 20 25 mph 1015.4mb 56f 57f
1:50pm 5ft 8s 5s 20 25 mph 1016.3mb 56f 57f
12:50pm 5ft 9s 5s 20 22 mph 1016.6mb 56f 57f
11:50am 5ft 9s 6s 18 20 mph 1016.9mb 56f 56f
10:50am 5.5ft 9s 6s 16 18 mph 1016.8mb 56f 56f
9:50am 6ft 9s 6s 9 9 mph 1016.8mb 56f 56f
8:50am 6ft 9s 6s 7 9 mph 1017mb 56f 56f
7:50am 6ft 9s 6s 7 9 mph 1016.6mb 56f 56f
6:50am 6ft 9s 7s 11 11 mph 1016mb 55f 56f
5:50am 6ft 9s 7s 13 16 mph 1015.6mb 55f 56f
4:50am 6ft 8s 6s 16 20 mph 1015.5mb 56f 56f
3:50am 6ft 10s 7s 13 16 mph 1015.1mb 56f 56f
2:50am 6.5ft 10s 7s 16 18 mph 1015mb 56f 56f
1:50am 7ft 10s 6s 16 18 mph 1015.2mb 56f 57f
12:50am 7ft 10s 7s 18 20 mph 1015.1mb 56f 57f
Fri 09/22 11:50pm 7ft 10s 6s 16 18 mph 1015mb 55f 57f
10:50pm 7.5ft 10s 6s 18 22 mph 1014.7mb 55f 57f
9:50pm 8.5ft 10s 6s 20 22 mph 1014.4mb 55f 57f
8:50pm 9ft 10s 7s 22 27 mph 1014.1mb 55f 57f
7:50pm 9.5ft 10s 6s 25 29 mph 1013.6mb 56f 57f
6:50pm 9.5ft 9s 6s 27 34 mph 1013.2mb 56f 58f
5:50pm 9.5ft 10s 6s 27 34 mph 1013.2mb 56f 57f
4:50pm 9.5ft 10s 7s 27 34 mph 1013.5mb 56f 57f
3:50pm 8.5ft 10s 6s 22 29 mph 1013.3mb 56f 57f
2:50pm 8ft 10s 6s 22 27 mph 1013.8mb 56f 57f
1:50pm 7.5ft 11s 7s 22 27 mph 1014mb 56f 56f
12:50pm 7ft 10s 7s 20 22 mph 1014.3mb 56f 56f
11:50am 7.5ft 11s 8s 16 18 mph 1014.7mb 56f 56f
10:50am 7.5ft 11s 8s 7 11 mph 1015.1mb 56f 55f
9:50am 7ft 11s 8s 4 7 mph 1015.2mb 56f 55f
8:50am 8ft 11s 8s 2 4 mph 1014.9mb 56f 55f
7:50am 7.5ft 11s 8s 7 9 mph 1014.5mb 56f 55f
6:50am 9ft 11s 9s 4 7 mph 1014.2mb 56f 54f
5:50am 10ft 10s 9s 4 7 mph 1013.8mb 56f 54f
4:50am 9.5ft 11s 9s 7 9 mph 1013.4mb 56f 54f
3:50am 9ft 11s 8s 9 9 mph 1013.4mb 56f 55f
2:50am 10ft 11s 9s 7 9 mph 1013.5mb 56f 55f
1:50am 9ft 11s 9s 4 7 mph 1013.6mb 56f 55f
12:50am 8.5ft 11s 9s 4 4 mph 1013.7mb 56f 55f
Thu 09/21 11:50pm 7ft 10s 8s 2 4 mph 1013.8mb 56f 55f
10:50pm 6.5ft 10s 8s 4 7 mph 1013.8mb 56f 55f
9:50pm 6ft 11s 8s 2 2 mph 1013.8mb 56f 55f
8:50pm 7ft 11s 8s 2 4 mph 1013.7mb 56f 56f
7:50pm 6ft 11s 8s  -  2 mph 1013.4mb 56f 56f
6:50pm 6ft 11s 7s 2 7 mph 1013.4mb 56f 56f
5:50pm 7ft 11s 8s 4 7 mph 1013.6mb 56f 56f
4:50pm 8ft 10s 8s 4 7 mph 1013.7mb 56f 56f
3:50pm 7.5ft 11s 8s 2 4 mph 1013.7mb 56f 56f
2:50pm 7.5ft 10s 8s 4 7 mph 1013.9mb 56f 56f
1:50pm 8.5ft 11s 8s 7 9 mph 1013.9mb 56f 56f
12:50pm 8.5ft 10s 8s 7 7 mph 1014.1mb 57f 55f
11:50am 9ft 11s 8s 4 7 mph 1014.4mb 57f 55f
10:50am 8ft 11s 8s 2 4 mph 1014.8mb 56f 55f
9:50am 8.5ft 10s 8s 2 4 mph 1014.7mb 56f 54f
8:50am 8ft 11s 8s 9 11 mph 1014.5mb 56f 53f
7:50am 7ft 11s 8s 7 9 mph 1014.5mb 56f 54f
6:50am 8ft 11s 8s 7 9 mph 1014.1mb 56f 53f
5:50am 7.5ft 11s 8s 4 7 mph 1013.9mb 56f 54f